Inicio METAR Ruta Wind Satelite

Informe Meteorológico

Fecha: 2020/07/02 01:26:01 Local
2020.07.02 06:26 UTC


Estado: VENCIDO
Operación:MVFR
Station name not available
2020.07.01 1600 UTC
Wind: from the NNW (330 degrees) at 6 MPH (5 KT):0
Visibility: 4 mile(s):0
Sky conditions: mostly cloudy
Weather: fog in the vicinity
Temperature: 64 F (18 C)
Dew Point: 60 F (16 C)
Relative Humidity: 88%
Pressure (altimeter): 30.32 in. Hg (1026 hPa)
ob: SKMZ 011600Z 33005KT 7000 VCFG SCT009 BKN070 18/16 A3032
cycle: 16

SKMZ 011400Z 29005KT 7000 VCFG SCT009 BKN090 18/14 A3032